createdAt,value
2023-02-02T00:00:59.405Z,7.70
2023-02-02T00:06:09.373Z,6.90
2023-02-02T00:11:13.412Z,9.10
2023-02-02T00:16:29.197Z,9.40
2023-02-02T00:21:33.024Z,8.00
2023-02-02T00:26:37.544Z,13.50
2023-02-02T00:31:40.835Z,12.60
2023-02-02T00:36:45.745Z,8.80
2023-02-02T00:41:49.046Z,8.20
2023-02-02T00:46:52.140Z,8.70
2023-02-02T00:51:55.278Z,9.50
2023-02-02T00:56:58.361Z,8.50
2023-02-02T01:02:02.404Z,7.80
2023-02-02T01:07:06.613Z,5.30
2023-02-02T01:12:09.737Z,5.50
2023-02-02T01:17:14.852Z,5.60
2023-02-02T01:22:17.978Z,6.70
2023-02-02T01:27:21.186Z,6.20
2023-02-02T01:32:24.306Z,6.40
2023-02-02T01:37:28.017Z,5.80
2023-02-02T01:42:31.220Z,6.30
2023-02-02T01:47:43.136Z,7.70
2023-02-02T01:52:49.831Z,7.90
2023-02-02T01:58:00.928Z,6.40
2023-02-02T02:03:12.029Z,5.70
2023-02-02T02:08:47.507Z,6.70
2023-02-02T02:14:13.650Z,5.40
2023-02-02T02:20:07.009Z,10.80
2023-02-02T02:26:05.413Z,9.00
2023-02-02T02:31:21.878Z,7.00
2023-02-02T02:36:52.998Z,16.30
2023-02-02T02:42:03.015Z,11.70
2023-02-02T02:47:06.484Z,19.10
2023-02-02T02:52:10.104Z,13.80
2023-02-02T02:57:42.075Z,12.70
2023-02-02T03:03:26.568Z,6.60
2023-02-02T03:08:32.764Z,13.10
2023-02-02T03:13:36.361Z,14.40
2023-02-02T03:18:40.175Z,14.70
2023-02-02T03:23:43.393Z,14.10
2023-02-02T03:28:46.801Z,10.00
2023-02-02T03:33:49.899Z,4.90
2023-02-02T03:38:53.021Z,10.30
2023-02-02T03:43:56.121Z,11.40
2023-02-02T03:48:59.321Z,10.80
2023-02-02T03:54:02.534Z,11.40
2023-02-02T03:59:05.843Z,19.00
2023-02-02T04:04:08.956Z,5.80
2023-02-02T04:09:12.062Z,9.10
2023-02-02T04:14:15.265Z,12.00
2023-02-02T04:19:18.476Z,11.90
2023-02-02T04:24:21.923Z,11.30
2023-02-02T04:29:26.633Z,8.40
2023-02-02T04:34:29.876Z,5.40
2023-02-02T04:39:33.057Z,16.60
2023-02-02T04:44:36.154Z,11.00
2023-02-02T04:49:39.690Z,15.00
2023-02-02T04:54:42.887Z,9.70
2023-02-02T04:59:46.195Z,7.00
2023-02-02T05:04:49.462Z,15.30
2023-02-02T05:09:52.623Z,5.80
2023-02-02T05:14:55.925Z,7.20
2023-02-02T05:19:59.362Z,13.20
2023-02-02T05:25:02.755Z,12.00
2023-02-02T05:30:07.289Z,14.40
2023-02-02T05:35:11.738Z,14.60
2023-02-02T05:40:14.833Z,9.20
2023-02-02T05:45:20.912Z,7.50
2023-02-02T05:50:24.041Z,14.10
2023-02-02T05:55:27.322Z,10.50
2023-02-02T06:00:30.532Z,13.00
2023-02-02T06:05:33.985Z,9.10
2023-02-02T06:10:41.613Z,7.80
2023-02-02T06:15:44.749Z,9.50
2023-02-02T06:20:47.984Z,9.10
2023-02-02T06:25:51.599Z,19.80
2023-02-02T06:30:54.739Z,12.70
2023-02-02T06:36:03.926Z,15.70
2023-02-02T06:41:07.570Z,6.40
2023-02-02T06:46:10.791Z,8.50
2023-02-02T06:51:14.196Z,8.50
2023-02-02T06:56:20.247Z,12.60
2023-02-02T07:01:23.512Z,14.90
2023-02-02T07:06:29.178Z,12.70
2023-02-02T07:11:37.564Z,8.00
2023-02-02T07:16:43.955Z,11.50
2023-02-02T07:21:47.192Z,8.60
2023-02-02T07:26:50.447Z,10.70
2023-02-02T07:31:53.604Z,6.00
2023-02-02T07:36:58.294Z,5.40
2023-02-02T07:42:01.438Z,8.10
2023-02-02T07:47:05.465Z,6.70
2023-02-02T07:52:08.609Z,6.00
2023-02-02T07:57:13.925Z,5.40
2023-02-02T08:02:17.551Z,3.90
2023-02-02T08:07:24.860Z,6.50
2023-02-02T08:12:28.617Z,4.90
2023-02-02T08:17:31.674Z,9.90
2023-02-02T08:22:34.783Z,4.90
2023-02-02T08:27:38.048Z,6.90
2023-02-02T08:32:41.340Z,4.30
2023-02-02T08:37:44.408Z,10.80
2023-02-02T08:42:51.339Z,4.70
2023-02-02T08:48:10.406Z,4.10
2023-02-02T08:53:14.825Z,5.40
2023-02-02T08:58:18.034Z,4.20
2023-02-02T09:03:21.959Z,4.50
2023-02-02T09:08:25.129Z,3.70
2023-02-02T09:13:28.389Z,7.70
2023-02-02T09:18:32.629Z,8.20
2023-02-02T09:23:39.062Z,4.80
2023-02-02T09:28:47.276Z,2.50
2023-02-02T09:33:51.140Z,3.80
2023-02-02T09:38:54.276Z,2.10
2023-02-02T09:44:33.187Z,3.30
2023-02-02T09:50:16.957Z,2.00
2023-02-02T09:55:41.455Z,2.60
2023-02-02T10:01:00.640Z,2.30
2023-02-02T10:06:47.370Z,1.50
2023-02-02T10:11:56.419Z,3.50
2023-02-02T10:17:52.389Z,4.80
2023-02-02T10:23:03.990Z,2.70
2023-02-02T10:28:33.086Z,1.80
2023-02-02T10:33:39.797Z,2.10
2023-02-02T10:39:23.122Z,1.70
2023-02-02T10:44:47.425Z,1.40
2023-02-02T10:50:08.044Z,3.90
2023-02-02T10:55:28.968Z,1.30
2023-02-02T11:00:56.082Z,2.70
2023-02-02T11:06:21.451Z,2.50
2023-02-02T11:11:42.591Z,2.70
2023-02-02T11:17:01.264Z,1.80
2023-02-02T11:22:06.018Z,1.40
2023-02-02T11:27:14.459Z,3.00
2023-02-02T11:32:30.876Z,2.30
2023-02-02T11:38:09.290Z,1.40
2023-02-02T11:43:28.699Z,1.00
2023-02-02T11:48:39.298Z,1.90
2023-02-02T11:53:48.626Z,0.70
2023-02-02T11:58:59.886Z,0.60
2023-02-02T12:04:26.341Z,1.10
2023-02-02T12:09:29.679Z,1.10
2023-02-02T12:15:03.713Z,1.70
2023-02-02T12:20:37.751Z,0.60
2023-02-02T12:25:55.802Z,1.00
2023-02-02T12:31:40.845Z,0.60
2023-02-02T12:37:14.120Z,0.70
2023-02-02T12:42:47.213Z,1.60
2023-02-02T12:48:25.552Z,0.70
2023-02-02T12:54:34.998Z,0.80
2023-02-02T12:59:42.644Z,1.20
2023-02-02T13:05:48.392Z,0.70
2023-02-02T13:11:28.872Z,0.80
2023-02-02T13:16:37.283Z,0.80
2023-02-02T13:21:43.736Z,1.30
2023-02-02T13:26:52.589Z,0.70
2023-02-02T13:32:05.804Z,0.90
2023-02-02T13:37:24.021Z,1.20
2023-02-02T13:43:07.182Z,0.50
2023-02-02T13:48:32.008Z,0.50
2023-02-02T13:54:49.450Z,0.70
2023-02-02T14:00:31.471Z,1.40
2023-02-02T14:05:40.622Z,1.90
2023-02-02T14:10:53.578Z,0.80
2023-02-02T14:16:05.935Z,1.80
2023-02-02T14:21:09.592Z,1.40
2023-02-02T14:26:41.587Z,2.00
2023-02-02T14:31:57.467Z,1.50
2023-02-02T14:37:28.544Z,0.90
2023-02-02T14:43:22.140Z,1.60
2023-02-02T14:48:26.889Z,2.90
2023-02-02T14:53:35.612Z,1.20
2023-02-02T15:04:17.574Z,3.90
2023-02-02T15:09:20.915Z,3.70
2023-02-02T15:14:32.933Z,2.20
2023-02-02T15:19:44.062Z,1.80
2023-02-02T15:24:48.794Z,2.00
2023-02-02T15:30:07.729Z,1.10
2023-02-02T15:35:23.880Z,1.90
2023-02-02T15:40:33.344Z,1.30
2023-02-02T15:45:43.812Z,3.60
2023-02-02T15:50:51.339Z,2.00
2023-02-02T15:55:57.595Z,3.80
2023-02-02T16:01:19.109Z,2.10
2023-02-02T16:06:22.827Z,2.70
2023-02-02T16:11:26.114Z,2.90
2023-02-02T16:16:32.687Z,18.30
2023-02-02T16:21:46.763Z,7.60
2023-02-02T16:26:54.436Z,6.30
2023-02-02T16:31:58.602Z,2.60
2023-02-02T16:37:12.479Z,8.00
2023-02-02T16:42:31.920Z,10.10
2023-02-02T16:47:38.979Z,6.30
2023-02-02T16:52:52.829Z,14.50
2023-02-02T16:57:57.261Z,3.90
2023-02-02T17:03:10.328Z,14.70
2023-02-02T17:08:15.144Z,7.30
2023-02-02T17:13:35.045Z,5.00
2023-02-02T17:18:38.472Z,2.80
2023-02-02T17:23:42.854Z,2.80
2023-02-02T17:28:46.846Z,7.10
2023-02-02T17:33:50.025Z,1.80
2023-02-02T17:38:53.243Z,1.60
2023-02-02T17:43:56.443Z,7.80
2023-02-02T17:48:59.652Z,11.70
2023-02-02T17:54:02.856Z,3.30
2023-02-02T17:59:06.370Z,2.40
2023-02-02T18:04:12.778Z,3.20
2023-02-02T18:09:16.171Z,2.50
2023-02-02T18:14:19.380Z,2.10
2023-02-02T18:19:22.688Z,2.30
2023-02-02T18:24:25.898Z,6.00
2023-02-02T18:29:29.465Z,4.10
2023-02-02T18:34:34.651Z,3.00
2023-02-02T18:39:37.781Z,6.60
2023-02-02T18:44:41.400Z,2.30
2023-02-02T18:49:44.713Z,1.20
2023-02-02T18:54:49.036Z,1.60
2023-02-02T18:59:54.814Z,2.00
2023-02-02T19:05:16.573Z,2.50
2023-02-02T19:10:22.865Z,3.50
2023-02-02T19:15:28.888Z,2.10
2023-02-02T19:20:32.834Z,1.50
2023-02-02T19:25:36.481Z,2.00
2023-02-02T19:30:45.152Z,1.60
2023-02-02T19:35:52.580Z,2.40
2023-02-02T19:40:56.245Z,1.00
2023-02-02T19:46:00.640Z,1.70
2023-02-02T19:51:34.407Z,2.80
2023-02-02T19:56:40.325Z,2.90
2023-02-02T20:01:48.022Z,2.70
2023-02-02T20:06:59.149Z,3.70
2023-02-02T20:12:26.952Z,1.50
2023-02-02T20:17:34.667Z,1.80
2023-02-02T20:22:38.892Z,1.60
2023-02-02T20:27:41.996Z,4.40
2023-02-02T20:32:45.415Z,1.30
2023-02-02T20:37:49.534Z,1.10
2023-02-02T20:42:53.051Z,2.20
2023-02-02T20:47:56.163Z,2.30
2023-02-02T20:53:00.302Z,1.20
2023-02-02T20:58:04.915Z,1.30
2023-02-02T21:03:08.147Z,1.30
2023-02-02T21:08:11.665Z,0.70
2023-02-02T21:13:14.867Z,1.20
2023-02-02T21:18:18.006Z,1.40
2023-02-02T21:23:22.027Z,2.30
2023-02-02T21:28:25.413Z,2.40
2023-02-02T21:33:28.623Z,2.80
2023-02-02T21:38:31.839Z,6.40
2023-02-02T21:43:35.250Z,2.70
2023-02-02T21:48:39.889Z,4.70
2023-02-02T21:53:43.093Z,1.70
2023-02-02T21:58:47.743Z,3.50
2023-02-02T22:03:51.354Z,4.40
2023-02-02T22:09:13.118Z,2.70
2023-02-02T22:14:35.666Z,2.00
2023-02-02T22:19:39.716Z,2.70
2023-02-02T22:24:45.899Z,4.50
2023-02-02T22:29:52.253Z,2.50
2023-02-02T22:34:55.457Z,3.90
2023-02-02T22:40:00.592Z,4.50
2023-02-02T22:45:04.468Z,4.40
2023-02-02T22:50:08.501Z,2.90
2023-02-02T22:55:12.706Z,3.00
2023-02-02T23:00:29.207Z,6.30
2023-02-02T23:05:32.549Z,6.00
2023-02-02T23:10:36.359Z,3.90
2023-02-02T23:15:39.623Z,0.90
2023-02-02T23:20:42.830Z,5.80
2023-02-02T23:25:46.002Z,3.50
2023-02-02T23:30:49.712Z,6.50
2023-02-02T23:35:52.905Z,7.60
2023-02-02T23:40:56.339Z,31.20
2023-02-02T23:46:00.460Z,20.30
2023-02-02T23:51:04.035Z,19.90
2023-02-02T23:56:07.656Z,21.80
